sensor_id;sensor_type;location;lat;lon;timestamp;P1;durP1;ratioP1;P2;durP2;ratioP2
25409;SDS011;13339;50.840;4.346;2023-05-20T00:01:11;12.37;;;5.33;;
25409;SDS011;13339;50.840;4.346;2023-05-20T00:03:36;9.77;;;4.90;;
25409;SDS011;13339;50.840;4.346;2023-05-20T00:06:02;9.63;;;5.43;;
25409;SDS011;13339;50.840;4.346;2023-05-20T00:08:28;11.93;;;4.90;;
25409;SDS011;13339;50.840;4.346;2023-05-20T00:10:53;7.40;;;4.80;;
25409;SDS011;13339;50.840;4.346;2023-05-20T00:13:19;9.90;;;4.80;;
25409;SDS011;13339;50.840;4.346;2023-05-20T00:15:45;7.77;;;4.80;;
25409;SDS011;13339;50.840;4.346;2023-05-20T00:18:10;14.10;;;5.43;;
25409;SDS011;13339;50.840;4.346;2023-05-20T00:20:36;8.93;;;4.93;;
25409;SDS011;13339;50.840;4.346;2023-05-20T00:23:02;9.93;;;5.50;;
25409;SDS011;13339;50.840;4.346;2023-05-20T00:25:27;7.77;;;5.20;;
25409;SDS011;13339;50.840;4.346;2023-05-20T00:27:55;9.00;;;4.60;;
25409;SDS011;13339;50.840;4.346;2023-05-20T00:30:20;7.77;;;5.07;;
25409;SDS011;13339;50.840;4.346;2023-05-20T00:32:46;10.03;;;5.17;;
25409;SDS011;13339;50.840;4.346;2023-05-20T00:35:12;11.47;;;5.80;;
25409;SDS011;13339;50.840;4.346;2023-05-20T00:37:37;10.47;;;5.33;;
25409;SDS011;13339;50.840;4.346;2023-05-20T00:40:03;11.97;;;5.43;;
25409;SDS011;13339;50.840;4.346;2023-05-20T00:42:29;9.43;;;5.40;;
25409;SDS011;13339;50.840;4.346;2023-05-20T00:44:55;11.13;;;5.83;;
25409;SDS011;13339;50.840;4.346;2023-05-20T00:47:27;12.53;;;5.83;;
25409;SDS011;13339;50.840;4.346;2023-05-20T00:49:55;10.97;;;5.60;;
25409;SDS011;13339;50.840;4.346;2023-05-20T00:52:22;10.07;;;5.77;;
25409;SDS011;13339;50.840;4.346;2023-05-20T00:54:48;9.27;;;5.90;;
25409;SDS011;13339;50.840;4.346;2023-05-20T00:57:15;12.07;;;6.27;;
25409;SDS011;13339;50.840;4.346;2023-05-20T00:59:41;9.73;;;6.13;;
25409;SDS011;13339;50.840;4.346;2023-05-20T01:02:07;9.23;;;5.53;;
25409;SDS011;13339;50.840;4.346;2023-05-20T01:04:33;10.10;;;5.83;;
25409;SDS011;13339;50.840;4.346;2023-05-20T01:06:59;18.07;;;5.77;;
25409;SDS011;13339;50.840;4.346;2023-05-20T01:09:29;7.93;;;6.03;;
25409;SDS011;13339;50.840;4.346;2023-05-20T01:14:36;9.60;;;5.93;;
25409;SDS011;13339;50.840;4.346;2023-05-20T01:17:30;11.73;;;5.40;;
25409;SDS011;13339;50.840;4.346;2023-05-20T01:20:01;9.47;;;5.83;;
25409;SDS011;13339;50.840;4.346;2023-05-20T01:22:28;9.53;;;5.67;;
25409;SDS011;13339;50.840;4.346;2023-05-20T01:24:54;8.00;;;5.03;;
25409;SDS011;13339;50.840;4.346;2023-05-20T01:27:21;7.50;;;5.60;;
25409;SDS011;13339;50.840;4.346;2023-05-20T01:29:48;12.13;;;5.83;;
25409;SDS011;13339;50.840;4.346;2023-05-20T01:32:26;8.77;;;5.80;;
25409;SDS011;13339;50.840;4.346;2023-05-20T01:34:56;9.67;;;5.90;;
25409;SDS011;13339;50.840;4.346;2023-05-20T01:37:23;9.33;;;5.70;;
25409;SDS011;13339;50.840;4.346;2023-05-20T01:39:49;11.37;;;5.80;;
25409;SDS011;13339;50.840;4.346;2023-05-20T01:42:17;16.77;;;5.90;;
25409;SDS011;13339;50.840;4.346;2023-05-20T01:44:44;10.43;;;5.60;;
25409;SDS011;13339;50.840;4.346;2023-05-20T01:47:09;9.67;;;5.30;;
25409;SDS011;13339;50.840;4.346;2023-05-20T01:49:35;8.40;;;5.40;;
25409;SDS011;13339;50.840;4.346;2023-05-20T01:52:01;15.73;;;6.00;;
25409;SDS011;13339;50.840;4.346;2023-05-20T01:54:27;9.50;;;5.80;;
25409;SDS011;13339;50.840;4.346;2023-05-20T01:56:53;8.80;;;5.47;;
25409;SDS011;13339;50.840;4.346;2023-05-20T01:59:19;9.50;;;5.60;;
25409;SDS011;13339;50.840;4.346;2023-05-20T02:01:45;11.43;;;5.97;;
25409;SDS011;13339;50.840;4.346;2023-05-20T02:04:11;12.87;;;5.50;;
25409;SDS011;13339;50.840;4.346;2023-05-20T02:06:36;9.70;;;5.60;;
25409;SDS011;13339;50.840;4.346;2023-05-20T02:09:02;12.83;;;6.13;;
25409;SDS011;13339;50.840;4.346;2023-05-20T02:11:27;11.87;;;5.57;;
25409;SDS011;13339;50.840;4.346;2023-05-20T02:13:53;15.43;;;5.10;;
25409;SDS011;13339;50.840;4.346;2023-05-20T02:16:19;7.90;;;5.70;;
25409;SDS011;13339;50.840;4.346;2023-05-20T02:18:45;12.67;;;6.17;;
25409;SDS011;13339;50.840;4.346;2023-05-20T02:21:10;8.53;;;5.43;;
25409;SDS011;13339;50.840;4.346;2023-05-20T02:23:36;8.20;;;4.67;;
25409;SDS011;13339;50.840;4.346;2023-05-20T02:26:01;12.07;;;5.53;;
25409;SDS011;13339;50.840;4.346;2023-05-20T02:28:27;10.67;;;5.63;;
25409;SDS011;13339;50.840;4.346;2023-05-20T02:30:53;8.83;;;5.27;;
25409;SDS011;13339;50.840;4.346;2023-05-20T02:33:18;15.97;;;5.37;;
25409;SDS011;13339;50.840;4.346;2023-05-20T02:35:44;9.13;;;5.47;;
25409;SDS011;13339;50.840;4.346;2023-05-20T02:38:11;7.93;;;4.83;;
25409;SDS011;13339;50.840;4.346;2023-05-20T02:40:36;13.37;;;4.40;;
25409;SDS011;13339;50.840;4.346;2023-05-20T02:43:02;13.40;;;5.40;;
25409;SDS011;13339;50.840;4.346;2023-05-20T02:45:28;9.13;;;5.33;;
25409;SDS011;13339;50.840;4.346;2023-05-20T02:47:54;8.97;;;5.47;;
25409;SDS011;13339;50.840;4.346;2023-05-20T02:50:20;10.07;;;6.00;;
25409;SDS011;13339;50.840;4.346;2023-05-20T02:52:46;7.20;;;5.10;;
25409;SDS011;13339;50.840;4.346;2023-05-20T02:55:11;7.87;;;4.97;;
25409;SDS011;13339;50.840;4.346;2023-05-20T02:57:37;12.43;;;4.90;;
25409;SDS011;13339;50.840;4.346;2023-05-20T03:00:07;9.80;;;5.30;;
25409;SDS011;13339;50.840;4.346;2023-05-20T03:02:37;9.33;;;5.33;;
25409;SDS011;13339;50.840;4.346;2023-05-20T03:05:03;9.53;;;5.20;;
25409;SDS011;13339;50.840;4.346;2023-05-20T03:07:29;11.30;;;5.77;;
25409;SDS011;13339;50.840;4.346;2023-05-20T03:09:58;13.63;;;5.67;;
25409;SDS011;13339;50.840;4.346;2023-05-20T03:12:24;13.80;;;5.17;;
25409;SDS011;13339;50.840;4.346;2023-05-20T03:14:50;7.27;;;4.80;;
25409;SDS011;13339;50.840;4.346;2023-05-20T03:17:19;8.30;;;5.60;;
25409;SDS011;13339;50.840;4.346;2023-05-20T03:19:45;8.80;;;4.87;;
25409;SDS011;13339;50.840;4.346;2023-05-20T03:22:11;12.70;;;5.30;;
25409;SDS011;13339;50.840;4.346;2023-05-20T03:24:37;6.80;;;4.77;;
25409;SDS011;13339;50.840;4.346;2023-05-20T03:27:04;11.47;;;4.80;;
25409;SDS011;13339;50.840;4.346;2023-05-20T03:29:30;10.87;;;5.23;;
25409;SDS011;13339;50.840;4.346;2023-05-20T03:31:57;13.43;;;5.30;;
25409;SDS011;13339;50.840;4.346;2023-05-20T03:34:23;10.57;;;6.50;;
25409;SDS011;13339;50.840;4.346;2023-05-20T03:36:49;9.03;;;5.20;;
25409;SDS011;13339;50.840;4.346;2023-05-20T03:39:15;13.33;;;5.10;;
25409;SDS011;13339;50.840;4.346;2023-05-20T03:41:41;8.07;;;4.20;;
25409;SDS011;13339;50.840;4.346;2023-05-20T03:44:06;11.03;;;5.50;;
25409;SDS011;13339;50.840;4.346;2023-05-20T03:46:32;9.77;;;4.80;;
25409;SDS011;13339;50.840;4.346;2023-05-20T03:48:58;10.93;;;4.90;;
25409;SDS011;13339;50.840;4.346;2023-05-20T03:51:26;9.63;;;5.40;;
25409;SDS011;13339;50.840;4.346;2023-05-20T03:53:52;12.20;;;5.23;;
25409;SDS011;13339;50.840;4.346;2023-05-20T03:56:17;9.97;;;5.40;;
25409;SDS011;13339;50.840;4.346;2023-05-20T03:58:43;11.03;;;5.67;;
25409;SDS011;13339;50.840;4.346;2023-05-20T04:01:09;12.23;;;4.93;;
25409;SDS011;13339;50.840;4.346;2023-05-20T04:03:37;12.07;;;5.47;;
25409;SDS011;13339;50.840;4.346;2023-05-20T04:06:02;10.47;;;5.60;;
25409;SDS011;13339;50.840;4.346;2023-05-20T04:08:28;9.27;;;5.30;;
25409;SDS011;13339;50.840;4.346;2023-05-20T04:10:54;8.27;;;5.17;;
25409;SDS011;13339;50.840;4.346;2023-05-20T04:13:21;15.50;;;4.97;;
25409;SDS011;13339;50.840;4.346;2023-05-20T04:15:49;9.77;;;5.60;;
25409;SDS011;13339;50.840;4.346;2023-05-20T04:18:16;10.53;;;4.80;;
25409;SDS011;13339;50.840;4.346;2023-05-20T04:20:42;7.60;;;5.37;;
25409;SDS011;13339;50.840;4.346;2023-05-20T04:23:08;12.80;;;5.93;;
25409;SDS011;13339;50.840;4.346;2023-05-20T04:25:34;9.53;;;5.73;;
25409;SDS011;13339;50.840;4.346;2023-05-20T04:28:00;10.00;;;5.30;;
25409;SDS011;13339;50.840;4.346;2023-05-20T04:30:26;11.43;;;5.47;;
25409;SDS011;13339;50.840;4.346;2023-05-20T04:32:52;13.37;;;5.43;;
25409;SDS011;13339;50.840;4.346;2023-05-20T04:35:18;9.10;;;5.00;;
25409;SDS011;13339;50.840;4.346;2023-05-20T04:37:44;11.50;;;5.57;;
25409;SDS011;13339;50.840;4.346;2023-05-20T04:40:12;9.30;;;6.20;;
25409;SDS011;13339;50.840;4.346;2023-05-20T04:42:38;13.77;;;6.47;;
25409;SDS011;13339;50.840;4.346;2023-05-20T04:45:04;15.53;;;6.13;;
25409;SDS011;13339;50.840;4.346;2023-05-20T04:47:33;13.30;;;5.60;;
25409;SDS011;13339;50.840;4.346;2023-05-20T04:50:02;8.87;;;5.87;;
25409;SDS011;13339;50.840;4.346;2023-05-20T04:52:34;10.17;;;5.70;;
25409;SDS011;13339;50.840;4.346;2023-05-20T04:55:01;11.40;;;5.77;;
25409;SDS011;13339;50.840;4.346;2023-05-20T04:57:27;13.40;;;5.53;;
25409;SDS011;13339;50.840;4.346;2023-05-20T04:59:53;11.47;;;5.67;;
25409;SDS011;13339;50.840;4.346;2023-05-20T05:02:22;13.37;;;6.17;;
25409;SDS011;13339;50.840;4.346;2023-05-20T05:04:48;12.20;;;6.40;;
25409;SDS011;13339;50.840;4.346;2023-05-20T05:07:14;14.23;;;5.90;;
25409;SDS011;13339;50.840;4.346;2023-05-20T05:09:40;10.17;;;5.93;;
25409;SDS011;13339;50.840;4.346;2023-05-20T05:12:05;17.03;;;6.40;;
25409;SDS011;13339;50.840;4.346;2023-05-20T05:14:31;12.90;;;6.10;;
25409;SDS011;13339;50.840;4.346;2023-05-20T05:16:57;12.03;;;6.23;;
25409;SDS011;13339;50.840;4.346;2023-05-20T05:19:22;12.53;;;6.40;;
25409;SDS011;13339;50.840;4.346;2023-05-20T05:21:48;11.43;;;6.00;;
25409;SDS011;13339;50.840;4.346;2023-05-20T05:24:15;11.07;;;5.97;;
25409;SDS011;13339;50.840;4.346;2023-05-20T05:26:40;11.90;;;6.03;;
25409;SDS011;13339;50.840;4.346;2023-05-20T05:29:06;9.53;;;6.17;;
25409;SDS011;13339;50.840;4.346;2023-05-20T05:31:32;9.27;;;5.80;;
25409;SDS011;13339;50.840;4.346;2023-05-20T05:33:57;9.90;;;6.23;;
25409;SDS011;13339;50.840;4.346;2023-05-20T05:36:23;12.97;;;6.50;;
25409;SDS011;13339;50.840;4.346;2023-05-20T05:38:50;11.10;;;7.03;;
25409;SDS011;13339;50.840;4.346;2023-05-20T05:41:15;11.33;;;6.27;;
25409;SDS011;13339;50.840;4.346;2023-05-20T05:43:41;19.73;;;7.77;;
25409;SDS011;13339;50.840;4.346;2023-05-20T05:46:07;18.33;;;7.70;;
25409;SDS011;13339;50.840;4.346;2023-05-20T05:48:33;11.90;;;6.40;;
25409;SDS011;13339;50.840;4.346;2023-05-20T05:51:01;15.83;;;7.30;;
25409;SDS011;13339;50.840;4.346;2023-05-20T05:53:27;16.27;;;7.03;;
25409;SDS011;13339;50.840;4.346;2023-05-20T05:55:52;10.67;;;6.67;;
25409;SDS011;13339;50.840;4.346;2023-05-20T05:58:18;12.33;;;6.20;;
25409;SDS011;13339;50.840;4.346;2023-05-20T06:00:44;14.60;;;6.50;;
25409;SDS011;13339;50.840;4.346;2023-05-20T06:03:10;11.53;;;6.50;;
25409;SDS011;13339;50.840;4.346;2023-05-20T06:05:36;17.83;;;7.10;;
25409;SDS011;13339;50.840;4.346;2023-05-20T06:08:01;13.97;;;7.07;;
25409;SDS011;13339;50.840;4.346;2023-05-20T06:10:27;10.53;;;6.67;;
25409;SDS011;13339;50.840;4.346;2023-05-20T06:12:52;12.80;;;7.23;;
25409;SDS011;13339;50.840;4.346;2023-05-20T06:15:18;15.23;;;6.33;;
25409;SDS011;13339;50.840;4.346;2023-05-20T06:17:44;10.57;;;6.17;;
25409;SDS011;13339;50.840;4.346;2023-05-20T06:20:09;14.60;;;6.70;;
25409;SDS011;13339;50.840;4.346;2023-05-20T06:22:35;11.67;;;7.07;;
25409;SDS011;13339;50.840;4.346;2023-05-20T06:25:01;9.47;;;6.13;;
25409;SDS011;13339;50.840;4.346;2023-05-20T06:27:27;10.87;;;6.60;;
25409;SDS011;13339;50.840;4.346;2023-05-20T06:29:53;16.87;;;6.83;;
25409;SDS011;13339;50.840;4.346;2023-05-20T06:32:18;11.73;;;6.73;;
25409;SDS011;13339;50.840;4.346;2023-05-20T06:34:44;10.20;;;7.00;;
25409;SDS011;13339;50.840;4.346;2023-05-20T06:37:10;13.87;;;6.57;;
25409;SDS011;13339;50.840;4.346;2023-05-20T06:39:36;10.87;;;6.63;;
25409;SDS011;13339;50.840;4.346;2023-05-20T06:42:01;11.87;;;6.53;;
25409;SDS011;13339;50.840;4.346;2023-05-20T06:44:27;13.60;;;6.70;;
25409;SDS011;13339;50.840;4.346;2023-05-20T06:46:53;17.50;;;6.67;;
25409;SDS011;13339;50.840;4.346;2023-05-20T06:49:19;11.03;;;6.70;;
25409;SDS011;13339;50.840;4.346;2023-05-20T06:51:45;9.00;;;6.37;;
25409;SDS011;13339;50.840;4.346;2023-05-20T06:54:10;10.20;;;6.67;;
25409;SDS011;13339;50.840;4.346;2023-05-20T06:56:36;8.93;;;6.33;;
25409;SDS011;13339;50.840;4.346;2023-05-20T06:59:01;16.17;;;6.47;;
25409;SDS011;13339;50.840;4.346;2023-05-20T07:01:27;14.47;;;6.17;;
25409;SDS011;13339;50.840;4.346;2023-05-20T07:03:53;11.30;;;6.60;;
25409;SDS011;13339;50.840;4.346;2023-05-20T07:06:18;11.17;;;5.87;;
25409;SDS011;13339;50.840;4.346;2023-05-20T07:08:44;10.27;;;6.23;;
25409;SDS011;13339;50.840;4.346;2023-05-20T07:11:09;10.07;;;5.93;;
25409;SDS011;13339;50.840;4.346;2023-05-20T07:13:36;15.10;;;7.67;;
25409;SDS011;13339;50.840;4.346;2023-05-20T07:16:01;16.27;;;6.40;;
25409;SDS011;13339;50.840;4.346;2023-05-20T07:18:27;15.30;;;6.30;;
25409;SDS011;13339;50.840;4.346;2023-05-20T07:20:53;8.63;;;6.00;;
25409;SDS011;13339;50.840;4.346;2023-05-20T07:23:20;11.47;;;6.60;;
25409;SDS011;13339;50.840;4.346;2023-05-20T07:25:47;9.83;;;6.37;;
25409;SDS011;13339;50.840;4.346;2023-05-20T07:28:14;11.87;;;6.13;;
25409;SDS011;13339;50.840;4.346;2023-05-20T07:30:41;9.17;;;6.77;;
25409;SDS011;13339;50.840;4.346;2023-05-20T07:33:10;10.47;;;6.17;;
25409;SDS011;13339;50.840;4.346;2023-05-20T07:35:36;9.17;;;5.63;;
25409;SDS011;13339;50.840;4.346;2023-05-20T07:38:01;11.23;;;5.97;;
25409;SDS011;13339;50.840;4.346;2023-05-20T07:40:27;6.90;;;5.80;;
25409;SDS011;13339;50.840;4.346;2023-05-20T07:42:52;9.90;;;5.63;;
25409;SDS011;13339;50.840;4.346;2023-05-20T07:45:18;8.97;;;5.97;;
25409;SDS011;13339;50.840;4.346;2023-05-20T07:47:44;17.13;;;5.70;;
25409;SDS011;13339;50.840;4.346;2023-05-20T07:50:10;9.20;;;6.20;;
25409;SDS011;13339;50.840;4.346;2023-05-20T07:52:36;7.43;;;5.37;;
25409;SDS011;13339;50.840;4.346;2023-05-20T07:55:02;8.60;;;5.47;;
25409;SDS011;13339;50.840;4.346;2023-05-20T07:57:27;6.77;;;5.40;;
25409;SDS011;13339;50.840;4.346;2023-05-20T07:59:53;7.27;;;5.00;;
25409;SDS011;13339;50.840;4.346;2023-05-20T08:02:19;11.10;;;4.80;;
25409;SDS011;13339;50.840;4.346;2023-05-20T08:04:44;7.10;;;4.77;;
25409;SDS011;13339;50.840;4.346;2023-05-20T08:07:10;6.30;;;4.50;;
25409;SDS011;13339;50.840;4.346;2023-05-20T08:09:35;7.40;;;4.50;;
25409;SDS011;13339;50.840;4.346;2023-05-20T08:12:01;8.70;;;4.67;;
25409;SDS011;13339;50.840;4.346;2023-05-20T08:14:27;13.07;;;4.60;;
25409;SDS011;13339;50.840;4.346;2023-05-20T08:16:52;6.30;;;4.43;;
25409;SDS011;13339;50.840;4.346;2023-05-20T08:19:18;6.93;;;4.53;;
25409;SDS011;13339;50.840;4.346;2023-05-20T08:21:43;6.83;;;4.53;;
25409;SDS011;13339;50.840;4.346;2023-05-20T08:24:09;11.90;;;4.23;;
25409;SDS011;13339;50.840;4.346;2023-05-20T08:26:35;5.97;;;4.50;;
25409;SDS011;13339;50.840;4.346;2023-05-20T08:29:00;6.60;;;4.33;;
25409;SDS011;13339;50.840;4.346;2023-05-20T08:31:26;4.70;;;4.17;;
25409;SDS011;13339;50.840;4.346;2023-05-20T08:33:52;7.67;;;3.73;;
25409;SDS011;13339;50.840;4.346;2023-05-20T08:36:17;10.23;;;4.03;;
25409;SDS011;13339;50.840;4.346;2023-05-20T08:38:43;7.07;;;4.13;;
25409;SDS011;13339;50.840;4.346;2023-05-20T08:41:09;13.43;;;4.10;;
25409;SDS011;13339;50.840;4.346;2023-05-20T08:43:34;11.50;;;4.37;;
25409;SDS011;13339;50.840;4.346;2023-05-20T08:46:01;6.47;;;4.10;;
25409;SDS011;13339;50.840;4.346;2023-05-20T08:48:30;7.10;;;3.87;;
25409;SDS011;13339;50.840;4.346;2023-05-20T08:50:57;6.33;;;4.17;;
25409;SDS011;13339;50.840;4.346;2023-05-20T08:53:24;7.70;;;3.80;;
25409;SDS011;13339;50.840;4.346;2023-05-20T08:58:16;7.67;;;4.10;;
25409;SDS011;13339;50.840;4.346;2023-05-20T09:00:43;7.53;;;3.93;;
25409;SDS011;13339;50.840;4.346;2023-05-20T09:03:09;5.57;;;4.07;;
25409;SDS011;13339;50.840;4.346;2023-05-20T09:05:35;9.83;;;4.53;;
25409;SDS011;13339;50.840;4.346;2023-05-20T09:08:07;10.40;;;4.10;;
25409;SDS011;13339;50.840;4.346;2023-05-20T09:10:34;4.60;;;3.93;;
25409;SDS011;13339;50.840;4.346;2023-05-20T09:13:01;5.17;;;3.53;;
25409;SDS011;13339;50.840;4.346;2023-05-20T09:15:28;8.33;;;3.60;;
25409;SDS011;13339;50.840;4.346;2023-05-20T09:17:54;8.17;;;4.13;;
25409;SDS011;13339;50.840;4.346;2023-05-20T09:20:23;7.23;;;3.67;;
25409;SDS011;13339;50.840;4.346;2023-05-20T09:22:50;5.57;;;3.83;;
25409;SDS011;13339;50.840;4.346;2023-05-20T09:25:19;7.17;;;3.53;;
25409;SDS011;13339;50.840;4.346;2023-05-20T09:27:46;11.87;;;3.80;;
25409;SDS011;13339;50.840;4.346;2023-05-20T09:30:12;6.60;;;3.40;;
25409;SDS011;13339;50.840;4.346;2023-05-20T09:32:38;14.13;;;3.70;;
25409;SDS011;13339;50.840;4.346;2023-05-20T09:35:04;13.97;;;3.73;;
25409;SDS011;13339;50.840;4.346;2023-05-20T09:37:30;5.43;;;3.63;;
25409;SDS011;13339;50.840;4.346;2023-05-20T09:40:00;6.07;;;3.70;;
25409;SDS011;13339;50.840;4.346;2023-05-20T09:42:43;5.83;;;3.97;;
25409;SDS011;13339;50.840;4.346;2023-05-20T09:45:13;8.43;;;4.10;;
25409;SDS011;13339;50.840;4.346;2023-05-20T09:47:39;9.87;;;3.47;;
25409;SDS011;13339;50.840;4.346;2023-05-20T09:50:07;7.30;;;3.50;;
25409;SDS011;13339;50.840;4.346;2023-05-20T09:52:37;8.27;;;3.77;;
25409;SDS011;13339;50.840;4.346;2023-05-20T09:55:04;8.50;;;3.23;;
25409;SDS011;13339;50.840;4.346;2023-05-20T09:57:33;4.67;;;3.10;;
25409;SDS011;13339;50.840;4.346;2023-05-20T10:00:00;14.23;;;3.20;;
25409;SDS011;13339;50.840;4.346;2023-05-20T10:02:29;6.87;;;3.47;;
25409;SDS011;13339;50.840;4.346;2023-05-20T10:04:55;6.47;;;3.53;;
25409;SDS011;13339;50.840;4.346;2023-05-20T10:10:14;6.03;;;3.50;;
25409;SDS011;13339;50.840;4.346;2023-05-20T10:15:45;5.83;;;3.23;;
25409;SDS011;13339;50.840;4.346;2023-05-20T10:18:37;5.10;;;3.17;;
25409;SDS011;13339;50.840;4.346;2023-05-20T10:21:21;9.20;;;3.30;;
25409;SDS011;13339;50.840;4.346;2023-05-20T10:23:48;6.00;;;3.17;;
25409;SDS011;13339;50.840;4.346;2023-05-20T10:26:15;4.73;;;2.90;;
25409;SDS011;13339;50.840;4.346;2023-05-20T10:28:41;8.70;;;3.10;;
25409;SDS011;13339;50.840;4.346;2023-05-20T10:31:17;3.67;;;3.20;;
25409;SDS011;13339;50.840;4.346;2023-05-20T10:33:45;5.93;;;3.40;;
25409;SDS011;13339;50.840;4.346;2023-05-20T10:39:13;6.30;;;3.50;;
25409;SDS011;13339;50.840;4.346;2023-05-20T10:41:42;9.00;;;3.73;;
25409;SDS011;13339;50.840;4.346;2023-05-20T10:44:08;11.40;;;3.53;;
25409;SDS011;13339;50.840;4.346;2023-05-20T10:46:34;8.47;;;3.50;;
25409;SDS011;13339;50.840;4.346;2023-05-20T10:49:02;14.90;;;3.60;;
25409;SDS011;13339;50.840;4.346;2023-05-20T10:51:29;10.67;;;3.73;;
25409;SDS011;13339;50.840;4.346;2023-05-20T10:54:00;9.73;;;3.80;;
25409;SDS011;13339;50.840;4.346;2023-05-20T10:56:26;9.77;;;4.33;;
25409;SDS011;13339;50.840;4.346;2023-05-20T10:58:52;10.03;;;3.83;;
25409;SDS011;13339;50.840;4.346;2023-05-20T11:01:22;8.97;;;4.07;;
25409;SDS011;13339;50.840;4.346;2023-05-20T11:03:49;5.63;;;3.67;;
25409;SDS011;13339;50.840;4.346;2023-05-20T11:06:16;5.50;;;3.63;;
25409;SDS011;13339;50.840;4.346;2023-05-20T11:08:43;6.27;;;3.33;;
25409;SDS011;13339;50.840;4.346;2023-05-20T11:11:09;6.60;;;3.53;;
25409;SDS011;13339;50.840;4.346;2023-05-20T11:13:36;7.70;;;3.60;;
25409;SDS011;13339;50.840;4.346;2023-05-20T11:16:02;4.80;;;3.80;;
25409;SDS011;13339;50.840;4.346;2023-05-20T11:18:28;6.00;;;3.83;;
25409;SDS011;13339;50.840;4.346;2023-05-20T11:20:57;4.90;;;3.77;;
25409;SDS011;13339;50.840;4.346;2023-05-20T11:23:24;6.87;;;3.90;;
25409;SDS011;13339;50.840;4.346;2023-05-20T11:25:52;7.13;;;3.57;;
25409;SDS011;13339;50.840;4.346;2023-05-20T11:28:19;7.13;;;3.80;;
25409;SDS011;13339;50.840;4.346;2023-05-20T11:30:46;6.50;;;4.07;;
25409;SDS011;13339;50.840;4.346;2023-05-20T11:33:13;8.10;;;3.80;;
25409;SDS011;13339;50.840;4.346;2023-05-20T11:35:50;8.60;;;3.60;;
25409;SDS011;13339;50.840;4.346;2023-05-20T11:38:17;9.97;;;3.77;;
25409;SDS011;13339;50.840;4.346;2023-05-20T11:40:49;10.27;;;3.80;;
25409;SDS011;13339;50.840;4.346;2023-05-20T11:43:17;9.03;;;3.50;;
25409;SDS011;13339;50.840;4.346;2023-05-20T11:45:43;6.13;;;4.00;;
25409;SDS011;13339;50.840;4.346;2023-05-20T11:48:10;7.97;;;4.07;;
25409;SDS011;13339;50.840;4.346;2023-05-20T11:50:42;25.73;;;3.53;;
25409;SDS011;13339;50.840;4.346;2023-05-20T11:53:10;7.23;;;3.90;;
25409;SDS011;13339;50.840;4.346;2023-05-20T11:55:44;8.20;;;3.80;;
25409;SDS011;13339;50.840;4.346;2023-05-20T11:58:11;7.00;;;4.17;;
25409;SDS011;13339;50.840;4.346;2023-05-20T12:00:47;5.40;;;4.13;;
25409;SDS011;13339;50.840;4.346;2023-05-20T12:03:14;13.63;;;4.30;;
25409;SDS011;13339;50.840;4.346;2023-05-20T12:05:40;9.30;;;4.30;;
25409;SDS011;13339;50.840;4.346;2023-05-20T12:08:06;5.60;;;4.07;;
25409;SDS011;13339;50.840;4.346;2023-05-20T12:10:32;10.33;;;3.70;;
25409;SDS011;13339;50.840;4.346;2023-05-20T12:12:58;8.43;;;3.63;;
25409;SDS011;13339;50.840;4.346;2023-05-20T12:15:24;5.87;;;4.03;;
25409;SDS011;13339;50.840;4.346;2023-05-20T12:17:51;7.77;;;3.80;;
25409;SDS011;13339;50.840;4.346;2023-05-20T12:20:20;6.87;;;4.13;;
25409;SDS011;13339;50.840;4.346;2023-05-20T12:22:47;7.53;;;3.87;;
25409;SDS011;13339;50.840;4.346;2023-05-20T12:25:14;5.00;;;4.17;;
25409;SDS011;13339;50.840;4.346;2023-05-20T12:27:41;9.17;;;4.60;;
25409;SDS011;13339;50.840;4.346;2023-05-20T12:30:08;10.27;;;4.90;;
25409;SDS011;13339;50.840;4.346;2023-05-20T12:32:35;8.07;;;4.63;;
25409;SDS011;13339;50.840;4.346;2023-05-20T12:35:01;5.00;;;4.50;;
25409;SDS011;13339;50.840;4.346;2023-05-20T12:37:27;7.20;;;4.33;;
25409;SDS011;13339;50.840;4.346;2023-05-20T12:39:53;4.93;;;4.07;;
25409;SDS011;13339;50.840;4.346;2023-05-20T12:42:18;6.60;;;3.87;;
25409;SDS011;13339;50.840;4.346;2023-05-20T12:44:44;8.90;;;3.80;;
25409;SDS011;13339;50.840;4.346;2023-05-20T12:47:10;5.73;;;3.23;;
25409;SDS011;13339;50.840;4.346;2023-05-20T12:49:36;8.77;;;3.53;;
25409;SDS011;13339;50.840;4.346;2023-05-20T12:52:01;3.87;;;3.43;;
25409;SDS011;13339;50.840;4.346;2023-05-20T12:54:27;7.83;;;4.23;;
25409;SDS011;13339;50.840;4.346;2023-05-20T12:56:55;12.73;;;3.90;;
25409;SDS011;13339;50.840;4.346;2023-05-20T12:59:22;5.40;;;3.90;;
25409;SDS011;13339;50.840;4.346;2023-05-20T13:01:47;8.13;;;4.20;;
25409;SDS011;13339;50.840;4.346;2023-05-20T13:04:13;4.73;;;3.67;;
25409;SDS011;13339;50.840;4.346;2023-05-20T13:06:39;8.83;;;3.83;;
25409;SDS011;13339;50.840;4.346;2023-05-20T13:09:06;7.17;;;3.53;;
25409;SDS011;13339;50.840;4.346;2023-05-20T13:11:31;4.07;;;3.67;;
25409;SDS011;13339;50.840;4.346;2023-05-20T13:13:57;8.20;;;3.93;;
25409;SDS011;13339;50.840;4.346;2023-05-20T13:16:23;5.87;;;3.37;;
25409;SDS011;13339;50.840;4.346;2023-05-20T13:18:49;6.47;;;3.10;;
25409;SDS011;13339;50.840;4.346;2023-05-20T13:21:15;6.40;;;3.70;;
25409;SDS011;13339;50.840;4.346;2023-05-20T13:23:41;6.00;;;3.40;;
25409;SDS011;13339;50.840;4.346;2023-05-20T13:26:08;6.40;;;3.97;;
25409;SDS011;13339;50.840;4.346;2023-05-20T13:28:34;5.57;;;3.53;;
25409;SDS011;13339;50.840;4.346;2023-05-20T13:31:01;8.10;;;3.93;;
25409;SDS011;13339;50.840;4.346;2023-05-20T13:33:27;9.20;;;4.10;;
25409;SDS011;13339;50.840;4.346;2023-05-20T13:35:52;5.83;;;3.50;;
25409;SDS011;13339;50.840;4.346;2023-05-20T13:38:18;7.27;;;3.80;;
25409;SDS011;13339;50.840;4.346;2023-05-20T13:40:44;6.20;;;3.87;;
25409;SDS011;13339;50.840;4.346;2023-05-20T13:43:09;6.03;;;3.67;;
25409;SDS011;13339;50.840;4.346;2023-05-20T13:45:35;5.83;;;3.40;;
25409;SDS011;13339;50.840;4.346;2023-05-20T13:48:01;4.37;;;3.30;;
25409;SDS011;13339;50.840;4.346;2023-05-20T13:50:27;8.33;;;3.53;;
25409;SDS011;13339;50.840;4.346;2023-05-20T13:52:52;4.30;;;3.13;;
25409;SDS011;13339;50.840;4.346;2023-05-20T13:55:18;6.27;;;3.00;;
25409;SDS011;13339;50.840;4.346;2023-05-20T13:57:44;7.43;;;3.17;;
25409;SDS011;13339;50.840;4.346;2023-05-20T14:00:09;7.63;;;3.60;;
25409;SDS011;13339;50.840;4.346;2023-05-20T14:02:36;3.63;;;2.90;;
25409;SDS011;13339;50.840;4.346;2023-05-20T14:05:01;3.93;;;3.23;;
25409;SDS011;13339;50.840;4.346;2023-05-20T14:07:27;4.27;;;3.60;;
25409;SDS011;13339;50.840;4.346;2023-05-20T14:09:53;4.27;;;3.23;;
25409;SDS011;13339;50.840;4.346;2023-05-20T14:12:18;6.30;;;3.50;;
25409;SDS011;13339;50.840;4.346;2023-05-20T14:14:44;6.30;;;3.20;;
25409;SDS011;13339;50.840;4.346;2023-05-20T14:17:10;7.23;;;2.93;;
25409;SDS011;13339;50.840;4.346;2023-05-20T14:19:35;5.37;;;3.50;;
25409;SDS011;13339;50.840;4.346;2023-05-20T14:22:01;5.83;;;3.57;;
25409;SDS011;13339;50.840;4.346;2023-05-20T14:24:27;10.10;;;3.97;;
25409;SDS011;13339;50.840;4.346;2023-05-20T14:26:53;5.27;;;3.60;;
25409;SDS011;13339;50.840;4.346;2023-05-20T14:29:19;6.90;;;3.80;;
25409;SDS011;13339;50.840;4.346;2023-05-20T14:31:44;11.03;;;4.80;;
25409;SDS011;13339;50.840;4.346;2023-05-20T14:34:10;4.33;;;3.93;;
25409;SDS011;13339;50.840;4.346;2023-05-20T14:36:36;6.33;;;3.80;;
25409;SDS011;13339;50.840;4.346;2023-05-20T14:39:03;7.70;;;3.60;;
25409;SDS011;13339;50.840;4.346;2023-05-20T14:41:29;6.53;;;3.67;;
25409;SDS011;13339;50.840;4.346;2023-05-20T14:43:55;4.73;;;3.33;;
25409;SDS011;13339;50.840;4.346;2023-05-20T14:46:20;5.63;;;3.30;;
25409;SDS011;13339;50.840;4.346;2023-05-20T14:48:46;6.40;;;3.77;;
25409;SDS011;13339;50.840;4.346;2023-05-20T14:51:11;9.03;;;3.50;;
25409;SDS011;13339;50.840;4.346;2023-05-20T14:53:37;5.00;;;3.93;;